createdAt,value
2023-05-12T00:03:22.258Z,0.70
2023-05-12T00:08:14.907Z,1.20
2023-05-12T00:13:09.384Z,1.08
2023-05-12T00:18:02.820Z,0.68
2023-05-12T00:22:56.223Z,1.55
2023-05-12T00:27:49.269Z,1.48
2023-05-12T00:32:46.655Z,0.52
2023-05-12T00:37:39.737Z,0.47
2023-05-12T00:42:35.242Z,0.50
2023-05-12T00:47:28.416Z,0.90
2023-05-12T00:52:21.559Z,1.33
2023-05-12T00:57:13.551Z,1.48
2023-05-12T01:02:08.870Z,1.25
2023-05-12T01:07:09.956Z,0.57
2023-05-12T01:12:04.356Z,1.15
2023-05-12T01:17:01.830Z,0.73
2023-05-12T01:21:56.806Z,0.85
2023-05-12T01:26:49.848Z,1.10
2023-05-12T01:31:45.942Z,0.80
2023-05-12T01:36:38.931Z,0.52
2023-05-12T01:41:34.940Z,1.00
2023-05-12T01:46:29.097Z,1.30
2023-05-12T01:51:29.287Z,0.70
2023-05-12T01:56:23.978Z,2.42
2023-05-12T02:01:16.745Z,1.13
2023-05-12T02:06:09.336Z,1.08
2023-05-12T02:11:09.063Z,2.35
2023-05-12T02:16:03.797Z,2.38
2023-05-12T02:20:57.120Z,1.00
2023-05-12T02:25:49.763Z,1.77
2023-05-12T02:30:50.742Z,2.30
2023-05-12T02:35:46.193Z,1.80
2023-05-12T02:40:38.901Z,2.95
2023-05-12T02:45:31.679Z,1.83
2023-05-12T02:50:25.469Z,1.20
2023-05-12T02:55:18.647Z,1.70
2023-05-12T03:00:13.426Z,1.70
2023-05-12T03:05:09.808Z,2.08
2023-05-12T03:10:02.974Z,1.50
2023-05-12T03:14:57.767Z,1.88
2023-05-12T03:19:51.305Z,1.63
2023-05-12T03:24:43.902Z,2.47
2023-05-12T03:29:37.635Z,2.17
2023-05-12T03:34:32.482Z,1.38
2023-05-12T03:39:25.243Z,1.90
2023-05-12T03:44:19.324Z,2.05
2023-05-12T03:49:12.160Z,1.45
2023-05-12T03:54:04.524Z,1.58
2023-05-12T03:58:56.992Z,2.97
2023-05-12T04:03:49.828Z,2.42
2023-05-12T04:08:43.832Z,1.50
2023-05-12T04:13:37.543Z,4.25
2023-05-12T04:18:30.466Z,3.03
2023-05-12T04:23:24.733Z,1.83
2023-05-12T04:28:18.275Z,3.35
2023-05-12T04:33:11.309Z,2.05
2023-05-12T04:38:05.293Z,2.65
2023-05-12T04:42:58.897Z,2.80
2023-05-12T04:47:52.740Z,1.25
2023-05-12T04:52:45.137Z,1.20
2023-05-12T04:57:38.158Z,3.08
2023-05-12T05:02:31.914Z,0.85
2023-05-12T05:07:24.429Z,0.90
2023-05-12T05:12:17.954Z,2.42
2023-05-12T05:17:12.810Z,2.47
2023-05-12T05:22:07.515Z,1.83
2023-05-12T05:27:01.181Z,3.45
2023-05-12T05:31:55.454Z,3.30
2023-05-12T05:36:48.566Z,4.90
2023-05-12T05:41:42.657Z,3.80
2023-05-12T05:46:35.430Z,3.50
2023-05-12T05:51:28.723Z,8.85
2023-05-12T05:56:23.876Z,10.52
2023-05-12T06:01:17.907Z,7.40
2023-05-12T06:06:11.454Z,3.50
2023-05-12T06:11:05.903Z,4.15
2023-05-12T06:15:58.961Z,7.20
2023-05-12T06:20:54.077Z,3.53
2023-05-12T06:25:50.774Z,5.63
2023-05-12T06:30:43.973Z,8.60
2023-05-12T06:35:37.106Z,6.00
2023-05-12T06:40:31.375Z,2.45
2023-05-12T06:45:23.778Z,4.30
2023-05-12T06:50:17.484Z,3.10
2023-05-12T06:55:10.342Z,6.32
2023-05-12T07:00:04.781Z,3.22
2023-05-12T07:04:58.333Z,2.10
2023-05-12T07:09:51.952Z,4.03
2023-05-12T07:14:45.258Z,1.60
2023-05-12T07:19:40.384Z,2.50
2023-05-12T07:24:33.608Z,2.40
2023-05-12T07:29:26.561Z,5.85
2023-05-12T07:34:19.633Z,2.22
2023-05-12T07:39:13.729Z,2.53
2023-05-12T07:44:07.961Z,4.13
2023-05-12T07:49:00.852Z,2.25
2023-05-12T07:53:55.809Z,2.22
2023-05-12T07:58:49.309Z,2.00
2023-05-12T08:03:42.516Z,1.20
2023-05-12T08:08:36.986Z,2.15
2023-05-12T08:13:30.063Z,1.48
2023-05-12T08:18:23.152Z,2.78
2023-05-12T08:23:19.029Z,2.10
2023-05-12T08:28:13.436Z,4.03
2023-05-12T08:33:07.426Z,1.25
2023-05-12T08:38:02.078Z,2.25
2023-05-12T08:43:12.797Z,2.30
2023-05-12T08:48:08.967Z,3.65
2023-05-12T08:53:04.935Z,2.55
2023-05-12T08:57:59.098Z,3.45
2023-05-12T09:02:54.722Z,2.50
2023-05-12T09:07:50.154Z,3.70
2023-05-12T09:12:47.721Z,2.97
2023-05-12T09:17:41.620Z,3.50
2023-05-12T09:22:36.268Z,0.85
2023-05-12T09:27:31.306Z,0.52
2023-05-12T09:32:33.420Z,0.93
2023-05-12T09:37:32.901Z,6.25
2023-05-12T09:42:30.321Z,5.07
2023-05-12T09:47:27.440Z,2.45
2023-05-12T09:52:22.673Z,1.95
2023-05-12T09:57:17.474Z,3.08
2023-05-12T10:02:13.765Z,1.67
2023-05-12T10:07:12.364Z,1.65
2023-05-12T10:12:05.482Z,4.05
2023-05-12T10:16:59.397Z,1.48
2023-05-12T10:21:52.243Z,2.20
2023-05-12T10:26:45.350Z,2.55
2023-05-12T10:31:39.036Z,4.95
2023-05-12T10:36:32.643Z,3.67
2023-05-12T10:41:35.205Z,2.40
2023-05-12T10:46:28.522Z,1.63
2023-05-12T10:51:23.668Z,6.13
2023-05-12T10:56:22.990Z,3.17
2023-05-12T11:01:26.234Z,7.72
2023-05-12T11:06:21.291Z,4.43
2023-05-12T11:11:20.139Z,1.52
2023-05-12T11:16:14.185Z,3.28
2023-05-12T11:21:12.596Z,2.15
2023-05-12T11:26:07.937Z,3.97
2023-05-12T11:31:01.392Z,5.40
2023-05-12T11:35:54.690Z,3.72
2023-05-12T11:40:47.731Z,4.47
2023-05-12T11:45:41.257Z,0.98
2023-05-12T11:50:34.302Z,1.23
2023-05-12T11:55:27.498Z,5.60
2023-05-12T12:00:27.892Z,3.20
2023-05-12T12:05:22.269Z,3.17
2023-05-12T12:10:16.919Z,0.80
2023-05-12T12:15:10.434Z,3.90
2023-05-12T12:20:04.367Z,2.17
2023-05-12T12:24:57.263Z,4.20
2023-05-12T12:29:50.789Z,3.42
2023-05-12T12:34:45.016Z,1.30
2023-05-12T12:39:38.081Z,0.80
2023-05-12T12:44:31.069Z,2.20
2023-05-12T12:49:24.545Z,1.80
2023-05-12T12:54:18.060Z,2.83
2023-05-12T12:59:12.038Z,3.65
2023-05-12T13:04:05.848Z,1.02
2023-05-12T13:08:57.873Z,0.98
2023-05-12T13:13:50.394Z,3.63
2023-05-12T13:18:44.665Z,3.92
2023-05-12T13:23:38.128Z,2.92
2023-05-12T13:28:31.321Z,1.98
2023-05-12T13:33:24.625Z,7.60
2023-05-12T13:38:18.015Z,0.75
2023-05-12T13:43:13.217Z,2.80
2023-05-12T13:48:06.407Z,1.15
2023-05-12T13:52:59.795Z,1.20
2023-05-12T13:57:56.422Z,1.65
2023-05-12T14:02:51.255Z,1.95
2023-05-12T14:07:45.105Z,0.38
2023-05-12T14:12:37.947Z,4.32
2023-05-12T14:17:31.567Z,3.80
2023-05-12T14:22:26.379Z,1.95
2023-05-12T14:27:20.013Z,4.25
2023-05-12T14:32:13.782Z,1.05
2023-05-12T14:37:06.866Z,1.83
2023-05-12T14:42:00.417Z,1.27
2023-05-12T14:46:53.760Z,1.00
2023-05-12T14:51:46.900Z,3.30
2023-05-12T14:56:42.244Z,2.15
2023-05-12T15:01:36.234Z,1.00
2023-05-12T15:06:29.603Z,2.92
2023-05-12T15:11:23.133Z,2.45
2023-05-12T15:16:16.678Z,1.30
2023-05-12T15:21:09.516Z,1.70
2023-05-12T15:26:15.479Z,2.65
2023-05-12T15:31:14.565Z,2.70
2023-05-12T15:36:11.445Z,1.80
2023-05-12T15:41:04.553Z,1.75
2023-05-12T15:45:57.185Z,3.42
2023-05-12T15:50:51.402Z,1.08
2023-05-12T15:55:45.404Z,3.78
2023-05-12T16:00:39.401Z,3.80
2023-05-12T16:05:34.558Z,3.88
2023-05-12T16:10:27.793Z,1.98
2023-05-12T16:15:21.072Z,0.93
2023-05-12T16:20:15.463Z,1.50
2023-05-12T16:25:10.538Z,5.43
2023-05-12T16:30:05.574Z,2.42
2023-05-12T16:34:58.583Z,2.08
2023-05-12T16:39:52.068Z,3.35
2023-05-12T16:44:45.259Z,3.00
2023-05-12T16:49:38.669Z,1.77
2023-05-12T16:54:33.192Z,8.32
2023-05-12T16:59:25.828Z,1.95
2023-05-12T17:04:20.073Z,2.65
2023-05-12T17:09:13.690Z,4.20
2023-05-12T17:14:08.194Z,4.25
2023-05-12T17:23:57.972Z,5.28
2023-05-12T17:28:51.000Z,3.97
2023-05-12T17:33:44.059Z,10.55
2023-05-12T17:38:36.587Z,8.73
2023-05-12T17:43:30.475Z,21.27
2023-05-12T17:48:22.957Z,15.95
2023-05-12T17:53:16.487Z,8.85
2023-05-12T17:58:09.474Z,9.65
2023-05-12T18:03:03.201Z,7.93
2023-05-12T18:07:56.809Z,9.32
2023-05-12T18:12:51.316Z,7.85
2023-05-12T18:17:44.928Z,5.68
2023-05-12T18:22:38.030Z,4.28
2023-05-12T18:27:31.255Z,7.80
2023-05-12T18:32:26.388Z,4.05
2023-05-12T18:37:19.803Z,4.50
2023-05-12T18:42:14.118Z,9.07
2023-05-12T18:47:09.038Z,3.58
2023-05-12T18:52:04.067Z,4.50
2023-05-12T18:56:57.928Z,4.82
2023-05-12T19:01:51.436Z,6.90
2023-05-12T19:06:45.892Z,7.35
2023-05-12T19:11:39.725Z,7.38
2023-05-12T19:16:35.088Z,7.32
2023-05-12T19:21:29.180Z,16.05
2023-05-12T19:26:22.315Z,12.02
2023-05-12T19:31:14.905Z,17.25
2023-05-12T19:36:08.730Z,12.77
2023-05-12T19:41:01.382Z,14.52
2023-05-12T19:45:56.033Z,15.95
2023-05-12T19:50:49.272Z,13.85
2023-05-12T19:55:43.023Z,12.88
2023-05-12T20:00:39.547Z,8.98
2023-05-12T20:05:32.011Z,8.80
2023-05-12T20:10:24.632Z,13.10
2023-05-12T20:15:18.757Z,11.10
2023-05-12T20:20:11.992Z,10.85
2023-05-12T20:25:06.024Z,11.23
2023-05-12T20:29:59.222Z,8.05
2023-05-12T20:34:51.840Z,10.93
2023-05-12T20:39:44.964Z,25.90
2023-05-12T20:44:38.857Z,10.23
2023-05-12T20:49:31.800Z,8.00
2023-05-12T20:54:24.815Z,7.18
2023-05-12T20:59:17.891Z,5.70
2023-05-12T21:04:12.517Z,5.20
2023-05-12T21:09:05.863Z,5.53
2023-05-12T21:13:59.648Z,7.18
2023-05-12T21:18:53.140Z,5.60
2023-05-12T21:23:47.387Z,7.18
2023-05-12T21:28:41.187Z,9.40
2023-05-12T21:33:34.251Z,5.82
2023-05-12T21:38:27.325Z,3.15
2023-05-12T21:43:20.002Z,3.95
2023-05-12T21:48:13.078Z,6.88
2023-05-12T21:53:07.040Z,4.53
2023-05-12T21:58:00.952Z,4.15
2023-05-12T22:03:02.906Z,6.50
2023-05-12T22:07:56.582Z,4.95
2023-05-12T22:12:50.606Z,4.85
2023-05-12T22:17:43.241Z,4.57
2023-05-12T22:22:36.284Z,4.05
2023-05-12T22:27:29.666Z,4.85
2023-05-12T22:32:23.882Z,8.23
2023-05-12T22:37:18.474Z,3.40
2023-05-12T22:42:13.082Z,4.00
2023-05-12T22:47:08.100Z,8.27
2023-05-12T22:52:01.610Z,6.47
2023-05-12T22:56:54.661Z,2.97
2023-05-12T23:01:47.790Z,2.05
2023-05-12T23:06:40.560Z,3.00
2023-05-12T23:11:34.999Z,2.92
2023-05-12T23:16:28.336Z,2.97
2023-05-12T23:21:25.486Z,3.28
2023-05-12T23:26:19.240Z,3.13
2023-05-12T23:31:13.650Z,6.00
2023-05-12T23:36:07.623Z,3.30
2023-05-12T23:41:00.758Z,3.85
2023-05-12T23:45:54.144Z,2.92
2023-05-12T23:50:46.757Z,1.58
2023-05-12T23:55:39.801Z,3.17
